Time,TemperatureF,DewpointF,PressureIn,WindDirection,WindDirectionDegrees,WindSpeedMPH,WindSpeedGustMPH,Humidity,HourlyPrecipIn,Conditions,Clouds,dailyrainin,SoftwareType,DateUTC
2013-06-25 00:02:00,71.0,-99.9,-100.00,North,-999,-999.0,-999.0,-999,0.00,,,0.12,,2013-06-25 04:02:00,
2013-06-25 00:11:00,71.0,-99.9,-100.00,North,-999,-999.0,-999.0,-999,0.00,,,0.12,,2013-06-25 04:11:00,
2013-06-25 00:22:00,71.0,-99.9,-100.00,North,-999,-999.0,-999.0,-999,0.00,,,0.12,,2013-06-25 04:22:00,
2013-06-25 00:30:00,69.0,-99.9,-100.00,North,-999,-999.0,-999.0,-999,0.00,,,0.12,,2013-06-25 04:30:00,
2013-06-25 01:02:00,69.0,-99.9,-100.00,North,-999,-999.0,-999.0,-999,0.00,,,0.12,,2013-06-25 05:02:00,
2013-06-25 01:11:00,69.0,-99.9,-100.00,North,-999,-999.0,-999.0,-999,0.00,,,0.12,,2013-06-25 05:11:00,
2013-06-25 01:22:00,69.0,-99.9,-100.00,North,-999,-999.0,-999.0,-999,0.00,,,0.12,,2013-06-25 05:22:00,
2013-06-25 01:30:00,69.0,-99.9,-100.00,North,-999,-999.0,-999.0,-999,0.00,,,0.12,,2013-06-25 05:30:00,
2013-06-25 02:01:00,69.0,-99.9,-100.00,North,-999,-999.0,-999.0,-999,0.00,,,0.12,,2013-06-25 06:01:00,
2013-06-25 02:11:00,69.0,-99.9,-100.00,North,-999,-999.0,-999.0,-999,0.00,,,0.12,,2013-06-25 06:11:00,
2013-06-25 02:22:00,69.0,-99.9,-100.00,North,-999,-999.0,-999.0,-999,0.00,,,0.12,,2013-06-25 06:22:00,
2013-06-25 02:30:00,67.0,-99.9,-100.00,North,-999,-999.0,-999.0,-999,0.00,,,0.12,,2013-06-25 06:30:00,
2013-06-25 03:12:00,67.0,-99.9,-100.00,North,-999,-999.0,-999.0,-999,0.00,,,0.12,,2013-06-25 07:12:00,
2013-06-25 03:22:00,67.0,-99.9,-100.00,North,-999,-999.0,-999.0,-999,0.00,,,0.12,,2013-06-25 07:22:00,
2013-06-25 03:30:00,66.0,-99.9,-100.00,North,-999,-999.0,-999.0,-999,0.00,,,0.12,,2013-06-25 07:30:00,
2013-06-25 04:12:00,66.0,-99.9,-100.00,North,-999,-999.0,-999.0,-999,0.00,,,0.12,,2013-06-25 08:12:00,
2013-06-25 04:22:00,66.0,-99.9,-100.00,North,-999,-999.0,-999.0,-999,0.00,,,0.12,,2013-06-25 08:22:00,
2013-06-25 04:30:00,65.0,-99.9,-100.00,North,-999,-999.0,-999.0,-999,0.00,,,0.12,,2013-06-25 08:30:00,
2013-06-25 05:02:00,65.0,-99.9,-100.00,North,-999,-999.0,-999.0,-999,0.00,,,0.12,,2013-06-25 09:02:00,
2013-06-25 05:12:00,65.0,-99.9,-100.00,North,-999,-999.0,-999.0,-999,0.00,,,0.12,,2013-06-25 09:12:00,
2013-06-25 05:22:00,65.0,-99.9,-100.00,North,-999,-999.0,-999.0,-999,0.00,,,0.12,,2013-06-25 09:22:00,
2013-06-25 05:30:00,64.0,-99.9,-100.00,North,-999,-999.0,-999.0,-999,0.00,,,0.11,,2013-06-25 09:30:00,
2013-06-25 06:12:00,64.0,-99.9,-100.00,North,-999,-999.0,-999.0,-999,0.00,,,0.11,,2013-06-25 10:12:00,
2013-06-25 06:22:00,64.0,-99.9,-100.00,North,-999,-999.0,-999.0,-999,0.00,,,0.11,,2013-06-25 10:22:00,
2013-06-25 06:30:00,67.0,-99.9,-100.00,North,-999,-999.0,-999.0,-999,0.00,,,0.11,,2013-06-25 10:30:00,
2013-06-25 07:12:00,67.0,-99.9,-100.00,North,-999,-999.0,-999.0,-999,0.00,,,0.11,,2013-06-25 11:12:00,
2013-06-25 07:22:00,67.0,-99.9,-100.00,North,-999,-999.0,-999.0,-999,0.00,,,0.11,,2013-06-25 11:22:00,
2013-06-25 07:30:00,70.0,-99.9,-100.00,North,-999,-999.0,-999.0,-999,0.00,,,0.11,,2013-06-25 11:30:00,
2013-06-25 08:02:00,70.0,-99.9,-100.00,North,-999,-999.0,-999.0,-999,0.00,,,0.11,,2013-06-25 12:02:00,
2013-06-25 08:12:00,70.0,-99.9,-100.00,North,-999,-999.0,-999.0,-999,0.00,,,0.11,,2013-06-25 12:12:00,
2013-06-25 08:22:00,70.0,-99.9,-100.00,North,-999,-999.0,-999.0,-999,0.00,,,0.11,,2013-06-25 12:22:00,
2013-06-25 08:30:00,76.0,-99.9,-100.00,North,-999,-999.0,-999.0,-999,0.00,,,0.11,,2013-06-25 12:30:00,
2013-06-25 09:22:00,76.0,-99.9,-100.00,North,-999,-999.0,-999.0,-999,0.00,,,0.11,,2013-06-25 13:22:00,
2013-06-25 09:30:00,78.0,-99.9,-100.00,North,-999,-999.0,-999.0,-999,0.00,,,0.11,,2013-06-25 13:30:00,
2013-06-25 10:02:00,78.0,-99.9,-100.00,North,-999,-999.0,-999.0,-999,0.00,,,0.11,,2013-06-25 14:02:00,
2013-06-25 10:11:00,78.0,-99.9,-100.00,North,-999,-999.0,-999.0,-999,0.00,,,0.11,,2013-06-25 14:11:00,
2013-06-25 10:23:00,78.0,-99.9,-100.00,North,-999,-999.0,-999.0,-999,0.00,,,0.11,,2013-06-25 14:23:00,
2013-06-25 10:30:00,82.0,-99.9,-100.00,North,-999,-999.0,-999.0,-999,0.00,,,0.11,,2013-06-25 14:30:00,
2013-06-25 11:02:00,82.0,-99.9,-100.00,North,-999,-999.0,-999.0,-999,0.00,,,0.11,,2013-06-25 15:02:00,
2013-06-25 11:11:00,82.0,-99.9,-100.00,North,-999,-999.0,-999.0,-999,0.00,,,0.11,,2013-06-25 15:11:00,
2013-06-25 11:22:00,82.0,-99.9,-100.00,North,-999,-999.0,-999.0,-999,0.00,,,0.11,,2013-06-25 15:22:00,
2013-06-25 11:30:00,87.0,-99.9,-100.00,North,-999,-999.0,-999.0,-999,0.00,,,0.11,,2013-06-25 15:30:00,
2013-06-25 12:12:00,87.0,-99.9,-100.00,North,-999,-999.0,-999.0,-999,0.00,,,0.11,,2013-06-25 16:12:00,
2013-06-25 12:23:00,87.0,-99.9,-100.00,North,-999,-999.0,-999.0,-999,0.00,,,0.11,,2013-06-25 16:23:00,
2013-06-25 12:30:00,87.0,-99.9,-100.00,North,-999,-999.0,-999.0,-999,0.00,,,0.11,,2013-06-25 16:30:00,
2013-06-25 13:11:00,87.0,-99.9,-100.00,North,-999,-999.0,-999.0,-999,0.00,,,0.11,,2013-06-25 17:11:00,
2013-06-25 13:22:00,87.0,-99.9,-100.00,North,-999,-999.0,-999.0,-999,0.00,,,0.11,,2013-06-25 17:22:00,
2013-06-25 13:45:00,88.0,-99.9,-100.00,North,-999,-999.0,-999.0,-999,-99.99,,,0.11,,2013-06-25 17:45:00,
2013-06-25 14:12:00,88.0,-99.9,-100.00,North,-999,-999.0,-999.0,-999,-99.99,,,0.11,,2013-06-25 18:12:00,
2013-06-25 14:23:00,88.0,-99.9,-100.00,North,-999,-999.0,-999.0,-999,-99.99,,,0.11,,2013-06-25 18:23:00,
2013-06-25 14:30:00,89.0,-99.9,-100.00,North,-999,-999.0,-999.0,-999,0.00,,,0.11,,2013-06-25 18:30:00,
2013-06-25 14:34:00,88.0,-99.9,-100.00,North,-999,-999.0,-999.0,-999,-99.99,,,0.11,,2013-06-25 18:34:00,
2013-06-25 15:12:00,89.0,-99.9,-100.00,North,-999,-999.0,-999.0,-999,0.00,,,0.11,,2013-06-25 19:12:00,
2013-06-25 15:23:00,89.0,-99.9,-100.00,North,-999,-999.0,-999.0,-999,0.00,,,0.11,,2013-06-25 19:23:00,
2013-06-25 15:30:00,89.0,-99.9,-100.00,North,-999,-999.0,-999.0,-999,0.00,,,0.11,,2013-06-25 19:30:00,
2013-06-25 16:11:00,89.0,-99.9,-100.00,North,-999,-999.0,-999.0,-999,0.00,,,0.11,,2013-06-25 20:11:00,
2013-06-25 16:22:00,89.0,-99.9,-100.00,North,-999,-999.0,-999.0,-999,0.00,,,0.11,,2013-06-25 20:22:00,
2013-06-25 16:30:00,88.0,-99.9,-100.00,North,-999,-999.0,-999.0,-999,0.00,,,0.11,,2013-06-25 20:30:00,
2013-06-25 17:11:00,88.0,-99.9,-100.00,North,-999,-999.0,-999.0,-999,0.00,,,0.11,,2013-06-25 21:11:00,
2013-06-25 17:22:00,88.0,-99.9,-100.00,North,-999,-999.0,-999.0,-999,0.00,,,0.11,,2013-06-25 21:22:00,
2013-06-25 17:30:00,86.0,-99.9,-100.00,North,-999,-999.0,-999.0,-999,0.00,,,0.00,,2013-06-25 21:30:00,
2013-06-25 18:02:00,86.0,-99.9,-100.00,North,-999,-999.0,-999.0,-999,0.00,,,0.00,,2013-06-25 22:02:00,
2013-06-25 18:12:00,86.0,-99.9,-100.00,North,-999,-999.0,-999.0,-999,0.00,,,0.00,,2013-06-25 22:12:00,
2013-06-25 18:22:00,86.0,-99.9,-100.00,North,-999,-999.0,-999.0,-999,0.00,,,0.00,,2013-06-25 22:22:00,
2013-06-25 18:30:00,71.0,-99.9,-100.00,North,-999,-999.0,-999.0,-999,-99.99,,,0.27,,2013-06-25 22:30:00,
2013-06-25 19:02:00,71.0,-99.9,-100.00,North,-999,-999.0,-999.0,-999,-99.99,,,0.27,,2013-06-25 23:02:00,
2013-06-25 19:11:00,71.0,-99.9,-100.00,North,-999,-999.0,-999.0,-999,-99.99,,,0.27,,2013-06-25 23:11:00,
2013-06-25 19:22:00,71.0,-99.9,-100.00,North,-999,-999.0,-999.0,-999,-99.99,,,0.27,,2013-06-25 23:22:00,
2013-06-25 20:02:00,70.0,-99.9,-100.00,North,-999,-999.0,-999.0,-999,-99.99,,,0.36,,2013-06-26 00:02:00,
2013-06-25 20:12:00,70.0,-99.9,-100.00,North,-999,-999.0,-999.0,-999,-99.99,,,0.36,,2013-06-26 00:12:00,
2013-06-25 20:22:00,70.0,-99.9,-100.00,North,-999,-999.0,-999.0,-999,-99.99,,,0.36,,2013-06-26 00:22:00,
2013-06-25 20:30:00,70.0,-99.9,-100.00,North,-999,-999.0,-999.0,-999,0.02,,,0.38,,2013-06-26 00:30:00,
2013-06-25 20:33:00,70.0,-99.9,-100.00,North,-999,-999.0,-999.0,-999,-99.99,,,0.36,,2013-06-26 00:33:00,
2013-06-25 20:42:00,70.0,-99.9,-100.00,North,-999,-999.0,-999.0,-999,-99.99,,,0.36,,2013-06-26 00:42:00,
2013-06-25 21:01:00,70.0,-99.9,-100.00,North,-999,-999.0,-999.0,-999,0.02,,,0.38,,2013-06-26 01:01:00,
2013-06-25 21:11:00,70.0,-99.9,-100.00,North,-999,-999.0,-999.0,-999,0.02,,,0.38,,2013-06-26 01:11:00,
2013-06-25 21:22:00,70.0,-99.9,-100.00,North,-999,-999.0,-999.0,-999,0.02,,,0.38,,2013-06-26 01:22:00,
2013-06-25 21:30:00,70.0,-99.9,-100.00,North,-999,-999.0,-999.0,-999,0.00,,,0.38,,2013-06-26 01:30:00,
2013-06-25 22:02:00,70.0,-99.9,-100.00,North,-999,-999.0,-999.0,-999,0.00,,,0.38,,2013-06-26 02:02:00,
2013-06-25 22:11:00,70.0,-99.9,-100.00,North,-999,-999.0,-999.0,-999,0.00,,,0.38,,2013-06-26 02:11:00,
2013-06-25 22:22:00,70.0,-99.9,-100.00,North,-999,-999.0,-999.0,-999,0.00,,,0.38,,2013-06-26 02:22:00,
2013-06-25 22:30:00,69.0,-99.9,-100.00,North,-999,-999.0,-999.0,-999,0.00,,,0.38,,2013-06-26 02:30:00,
2013-06-25 23:11:00,69.0,-99.9,-100.00,North,-999,-999.0,-999.0,-999,0.00,,,0.38,,2013-06-26 03:11:00,
2013-06-25 23:22:00,69.0,-99.9,-100.00,North,-999,-999.0,-999.0,-999,0.00,,,0.38,,2013-06-26 03:22:00,
2013-06-25 23:30:00,68.0,-99.9,-100.00,North,-999,-999.0,-999.0,-999,0.00,,,0.38,,2013-06-26 03:30:00,